createdAt,value
2018-03-20T00:00:02.648Z,14.73
2018-03-20T00:02:29.334Z,14.70
2018-03-20T00:04:56.023Z,15.43
2018-03-20T00:07:22.740Z,15.03
2018-03-20T00:09:49.487Z,14.63
2018-03-20T00:12:16.212Z,13.13
2018-03-20T00:14:43.066Z,14.33
2018-03-20T00:17:09.756Z,13.77
2018-03-20T00:19:36.461Z,12.77
2018-03-20T00:22:03.227Z,13.37
2018-03-20T00:24:29.912Z,15.03
2018-03-20T00:26:56.593Z,13.43
2018-03-20T00:29:23.325Z,13.10
2018-03-20T00:31:50.012Z,15.00
2018-03-20T00:34:16.724Z,12.40
2018-03-20T00:36:43.418Z,15.30
2018-03-20T00:39:10.173Z,16.83
2018-03-20T00:41:36.851Z,14.27
2018-03-20T00:44:03.553Z,12.63
2018-03-20T00:46:30.240Z,14.60
2018-03-20T00:48:56.966Z,13.93
2018-03-20T00:51:23.710Z,17.90
2018-03-20T00:53:50.399Z,13.60
2018-03-20T00:56:17.199Z,14.53
2018-03-20T00:58:43.917Z,15.43
2018-03-20T01:01:10.591Z,13.27
2018-03-20T01:03:37.272Z,12.23
2018-03-20T01:06:03.985Z,14.00
2018-03-20T01:08:30.669Z,13.37
2018-03-20T01:10:57.341Z,12.27
2018-03-20T01:13:24.048Z,11.57
2018-03-20T01:15:50.815Z,13.43
2018-03-20T01:18:17.580Z,17.13
2018-03-20T01:20:44.279Z,14.03
2018-03-20T01:23:10.995Z,13.87
2018-03-20T01:25:37.729Z,12.97
2018-03-20T01:28:04.500Z,14.20
2018-03-20T01:30:31.184Z,13.03
2018-03-20T01:32:57.874Z,13.20
2018-03-20T01:35:24.599Z,11.63
2018-03-20T01:37:51.293Z,11.93
2018-03-20T01:40:18.029Z,12.40
2018-03-20T01:42:44.733Z,12.17
2018-03-20T01:45:11.422Z,11.80
2018-03-20T01:47:38.129Z,12.50
2018-03-20T01:50:04.840Z,13.53
2018-03-20T01:52:31.579Z,10.77
2018-03-20T01:54:58.269Z,12.00
2018-03-20T01:57:24.967Z,11.73
2018-03-20T01:59:51.667Z,11.97
2018-03-20T02:02:18.387Z,11.60
2018-03-20T02:04:45.068Z,11.13
2018-03-20T02:07:11.746Z,12.73
2018-03-20T02:09:38.446Z,12.43
2018-03-20T02:12:05.133Z,11.27
2018-03-20T02:14:31.847Z,12.73
2018-03-20T02:16:58.539Z,11.93
2018-03-20T02:19:25.223Z,11.57
2018-03-20T02:21:51.968Z,12.43
2018-03-20T02:24:18.665Z,11.90
2018-03-20T02:26:45.403Z,11.50
2018-03-20T02:29:12.088Z,11.27
2018-03-20T02:31:38.830Z,12.73
2018-03-20T02:34:05.544Z,11.07
2018-03-20T02:36:32.229Z,11.87
2018-03-20T02:38:58.954Z,10.97
2018-03-20T02:41:25.643Z,12.60
2018-03-20T02:43:52.316Z,10.33
2018-03-20T02:46:21.785Z,10.47
2018-03-20T02:48:48.464Z,10.80
2018-03-20T02:51:15.166Z,12.13
2018-03-20T02:53:41.853Z,10.33
2018-03-20T02:56:08.559Z,13.10
2018-03-20T02:58:35.296Z,11.50
2018-03-20T03:01:01.969Z,10.87
2018-03-20T03:03:28.689Z,10.23
2018-03-20T03:05:55.413Z,12.97
2018-03-20T03:08:22.154Z,10.40
2018-03-20T03:10:48.856Z,12.03
2018-03-20T03:13:15.532Z,11.90
2018-03-20T03:15:42.227Z,11.67
2018-03-20T03:18:08.976Z,11.50
2018-03-20T03:20:35.716Z,10.23
2018-03-20T03:23:02.424Z,10.70
2018-03-20T03:25:29.155Z,11.57
2018-03-20T03:27:55.874Z,9.73
2018-03-20T03:30:22.601Z,10.40
2018-03-20T03:32:49.289Z,10.77
2018-03-20T03:35:16.053Z,11.07
2018-03-20T03:37:42.743Z,11.70
2018-03-20T03:40:09.511Z,10.40
2018-03-20T03:42:36.196Z,10.30
2018-03-20T03:45:02.901Z,10.20
2018-03-20T03:47:29.626Z,10.90
2018-03-20T03:49:56.379Z,9.73
2018-03-20T03:52:25.916Z,10.23
2018-03-20T03:54:52.594Z,10.07
2018-03-20T03:57:19.284Z,12.40
2018-03-20T03:59:46.049Z,9.50
2018-03-20T04:02:12.738Z,10.50
2018-03-20T04:04:39.492Z,11.57
2018-03-20T04:07:06.172Z,10.37
2018-03-20T04:09:32.861Z,10.53
2018-03-20T04:11:59.577Z,9.17
2018-03-20T04:14:26.289Z,10.77
2018-03-20T04:16:52.978Z,9.07
2018-03-20T04:19:19.718Z,11.77
2018-03-20T04:21:46.417Z,10.77
2018-03-20T04:24:13.107Z,10.10
2018-03-20T04:26:39.788Z,11.10
2018-03-20T04:29:06.501Z,10.07
2018-03-20T04:31:33.185Z,11.83
2018-03-20T04:33:59.866Z,10.70
2018-03-20T04:36:26.617Z,10.80
2018-03-20T04:38:53.318Z,8.97
2018-03-20T04:41:20.027Z,9.67
2018-03-20T04:43:46.700Z,10.17
2018-03-20T04:46:13.369Z,9.73
2018-03-20T04:48:40.244Z,9.77
2018-03-20T04:51:06.925Z,10.40
2018-03-20T04:53:33.663Z,9.97
2018-03-20T04:56:00.407Z,9.30
2018-03-20T04:58:27.085Z,10.77
2018-03-20T05:00:53.810Z,10.07
2018-03-20T05:03:20.534Z,9.43
2018-03-20T05:05:47.238Z,9.50
2018-03-20T05:08:13.922Z,8.90
2018-03-20T05:10:40.598Z,9.23
2018-03-20T05:13:07.293Z,13.70
2018-03-20T05:15:34.024Z,8.63
2018-03-20T05:18:00.697Z,8.97
2018-03-20T05:20:33.164Z,9.93
2018-03-20T05:23:05.379Z,9.77
2018-03-20T05:25:32.066Z,9.63
2018-03-20T05:27:58.750Z,10.53
2018-03-20T05:30:25.440Z,9.27
2018-03-20T05:32:52.120Z,10.90
2018-03-20T05:35:18.829Z,8.83
2018-03-20T05:37:45.549Z,10.13
2018-03-20T05:40:12.249Z,12.20
2018-03-20T05:42:38.959Z,8.87
2018-03-20T05:45:05.655Z,9.63
2018-03-20T05:47:38.113Z,10.07
2018-03-20T05:50:10.585Z,9.20
2018-03-20T05:52:37.296Z,9.20
2018-03-20T05:55:04.001Z,9.07
2018-03-20T05:57:30.706Z,9.17
2018-03-20T05:59:57.422Z,10.13
2018-03-20T06:02:24.129Z,10.87
2018-03-20T06:04:50.833Z,9.30
2018-03-20T06:07:17.500Z,9.93
2018-03-20T06:09:44.188Z,10.83
2018-03-20T06:12:10.875Z,10.40
2018-03-20T06:14:37.548Z,9.00
2018-03-20T06:17:04.274Z,8.43
2018-03-20T06:19:30.973Z,9.13
2018-03-20T06:21:57.657Z,8.87
2018-03-20T06:24:24.437Z,8.57
2018-03-20T06:26:51.124Z,11.80
2018-03-20T06:29:17.828Z,10.07
2018-03-20T06:31:44.513Z,9.53
2018-03-20T06:34:11.181Z,9.77
2018-03-20T06:36:37.871Z,9.50
2018-03-20T06:39:04.574Z,8.23
2018-03-20T06:41:31.281Z,8.53
2018-03-20T06:43:57.960Z,9.83
2018-03-20T06:46:24.639Z,9.60
2018-03-20T06:48:51.338Z,9.57
2018-03-20T06:51:18.027Z,8.50
2018-03-20T06:53:44.776Z,8.97
2018-03-20T06:56:11.438Z,8.83
2018-03-20T06:58:38.122Z,8.03
2018-03-20T07:01:04.803Z,8.00
2018-03-20T07:03:31.494Z,7.90
2018-03-20T07:05:58.202Z,7.90
2018-03-20T07:08:24.935Z,8.83
2018-03-20T07:10:51.615Z,8.00
2018-03-20T07:13:18.318Z,8.57
2018-03-20T07:15:44.997Z,7.93
2018-03-20T07:18:11.704Z,8.80
2018-03-20T07:20:38.380Z,7.73
2018-03-20T07:23:06.033Z,9.87
2018-03-20T07:25:32.717Z,8.27
2018-03-20T07:27:59.388Z,8.73
2018-03-20T07:30:26.164Z,8.17
2018-03-20T07:32:52.842Z,8.57
2018-03-20T07:35:19.513Z,8.00
2018-03-20T07:37:48.277Z,8.40
2018-03-20T07:40:14.988Z,8.97
2018-03-20T07:42:41.691Z,8.87
2018-03-20T07:45:08.384Z,8.13
2018-03-20T07:47:35.076Z,10.17
2018-03-20T07:50:01.783Z,7.87
2018-03-20T07:52:28.477Z,9.07
2018-03-20T07:54:55.172Z,8.83
2018-03-20T07:57:21.856Z,8.33
2018-03-20T07:59:48.532Z,8.37
2018-03-20T08:02:15.229Z,8.07
2018-03-20T08:04:41.906Z,8.47
2018-03-20T08:07:08.613Z,8.27
2018-03-20T08:09:35.283Z,7.50
2018-03-20T08:12:01.955Z,8.67
2018-03-20T08:14:28.673Z,8.30
2018-03-20T08:16:55.366Z,8.50
2018-03-20T08:19:22.153Z,8.57
2018-03-20T08:21:48.793Z,10.07
2018-03-20T08:24:15.472Z,8.23
2018-03-20T08:26:42.170Z,11.50
2018-03-20T08:29:08.838Z,8.10
2018-03-20T08:31:35.556Z,9.03
2018-03-20T08:34:02.240Z,8.53
2018-03-20T08:36:28.913Z,8.80
2018-03-20T08:38:55.600Z,7.47
2018-03-20T08:41:22.289Z,9.07
2018-03-20T08:43:49.000Z,9.10
2018-03-20T08:46:15.681Z,8.30
2018-03-20T08:48:42.354Z,8.70
2018-03-20T08:51:09.047Z,7.60
2018-03-20T08:53:35.737Z,8.03
2018-03-20T08:56:02.479Z,8.80
2018-03-20T08:58:29.138Z,9.40
2018-03-20T09:00:55.827Z,8.43
2018-03-20T09:03:22.529Z,8.07
2018-03-20T09:05:49.259Z,8.17
2018-03-20T09:08:16.037Z,8.23
2018-03-20T09:10:42.714Z,8.33
2018-03-20T09:13:09.389Z,8.40
2018-03-20T09:15:36.107Z,8.60
2018-03-20T09:18:02.800Z,7.60
2018-03-20T09:20:29.501Z,7.90
2018-03-20T09:22:56.197Z,7.63
2018-03-20T09:25:22.878Z,9.07
2018-03-20T09:27:49.582Z,6.87
2018-03-20T09:30:16.254Z,8.00
2018-03-20T09:32:42.947Z,8.80
2018-03-20T09:35:09.617Z,7.53
2018-03-20T09:37:36.287Z,8.00
2018-03-20T09:40:03.001Z,7.67
2018-03-20T09:42:29.680Z,7.97
2018-03-20T09:44:56.389Z,8.70
2018-03-20T09:47:23.066Z,8.07
2018-03-20T09:49:49.787Z,7.63
2018-03-20T09:52:16.463Z,7.43
2018-03-20T09:54:43.141Z,8.67
2018-03-20T09:57:09.842Z,7.80
2018-03-20T09:59:36.525Z,7.53
2018-03-20T10:02:03.202Z,7.37
2018-03-20T10:04:29.902Z,7.70
2018-03-20T10:06:56.586Z,6.97
2018-03-20T10:09:23.278Z,8.97
2018-03-20T10:11:49.950Z,6.70
2018-03-20T10:14:16.625Z,7.50
2018-03-20T10:16:43.325Z,7.37
2018-03-20T10:19:10.011Z,7.30
2018-03-20T10:21:36.706Z,7.67
2018-03-20T10:24:03.389Z,7.10
2018-03-20T10:26:30.057Z,7.30
2018-03-20T10:28:56.751Z,7.60
2018-03-20T10:31:23.425Z,7.47
2018-03-20T10:33:50.120Z,7.27
2018-03-20T10:36:16.795Z,6.20
2018-03-20T10:38:43.479Z,7.60
2018-03-20T10:41:10.178Z,7.57
2018-03-20T10:43:36.861Z,7.20
2018-03-20T10:46:03.561Z,7.27
2018-03-20T10:48:30.251Z,7.37
2018-03-20T10:50:56.920Z,7.20
2018-03-20T10:53:23.612Z,7.87
2018-03-20T10:55:50.295Z,7.57
2018-03-20T10:58:17.002Z,7.13
2018-03-20T11:00:49.210Z,6.90
2018-03-20T11:03:15.888Z,6.77
2018-03-20T11:05:42.633Z,7.90
2018-03-20T11:08:09.274Z,7.27
2018-03-20T11:10:35.984Z,7.13
2018-03-20T11:13:02.652Z,7.43
2018-03-20T11:15:29.336Z,7.03
2018-03-20T11:17:56.047Z,7.10
2018-03-20T11:20:22.730Z,8.07
2018-03-20T11:22:49.440Z,7.20
2018-03-20T11:25:16.129Z,7.10
2018-03-20T11:27:42.807Z,6.80
2018-03-20T11:30:09.509Z,7.50
2018-03-20T11:32:36.196Z,11.60
2018-03-20T11:35:03.028Z,9.40
2018-03-20T11:37:29.722Z,8.13
2018-03-20T11:39:56.400Z,9.67
2018-03-20T11:42:23.229Z,9.67
2018-03-20T11:44:49.908Z,10.17
2018-03-20T11:47:16.617Z,8.77
2018-03-20T11:49:43.298Z,8.70
2018-03-20T11:52:09.989Z,8.77
2018-03-20T11:54:36.830Z,8.60
2018-03-20T11:57:03.530Z,11.07
2018-03-20T11:59:30.273Z,10.20
2018-03-20T12:01:56.992Z,8.80
2018-03-20T12:04:23.667Z,9.10
2018-03-20T12:06:50.506Z,8.90
2018-03-20T12:09:22.978Z,7.90
2018-03-20T12:11:49.665Z,8.87
2018-03-20T12:14:16.453Z,14.23
2018-03-20T12:16:43.146Z,10.17
2018-03-20T12:19:09.851Z,9.70
2018-03-20T12:21:36.618Z,11.63
2018-03-20T12:24:03.346Z,9.83
2018-03-20T12:26:30.127Z,9.80
2018-03-20T12:28:56.778Z,8.60
2018-03-20T12:31:23.450Z,10.05
2018-03-20T12:33:50.193Z,9.37
2018-03-20T12:36:16.879Z,9.03
2018-03-20T12:38:43.544Z,10.67
2018-03-20T12:41:10.298Z,8.57
2018-03-20T12:43:40.307Z,7.57
2018-03-20T12:46:07.358Z,8.60
2018-03-20T12:48:34.204Z,9.63
2018-03-20T12:51:00.965Z,7.93
2018-03-20T12:53:27.667Z,7.63
2018-03-20T12:55:54.465Z,8.17
2018-03-20T12:58:21.123Z,9.63
2018-03-20T13:00:47.941Z,8.77
2018-03-20T13:03:14.604Z,8.27
2018-03-20T13:05:41.275Z,9.40
2018-03-20T13:08:08.062Z,8.37
2018-03-20T13:10:34.777Z,9.07
2018-03-20T13:13:01.440Z,9.13
2018-03-20T13:15:28.144Z,8.87
2018-03-20T13:17:54.884Z,10.53
2018-03-20T13:20:21.544Z,10.00
2018-03-20T13:22:48.187Z,8.77
2018-03-20T13:25:14.957Z,7.83
2018-03-20T13:27:41.697Z,9.20
2018-03-20T13:30:08.335Z,7.63
2018-03-20T13:32:35.013Z,8.53
2018-03-20T13:35:02.556Z,7.10
2018-03-20T13:37:29.384Z,7.17
2018-03-20T13:39:56.153Z,6.57
2018-03-20T13:42:22.824Z,7.23
2018-03-20T13:44:49.604Z,6.63
2018-03-20T13:47:16.369Z,9.50
2018-03-20T13:49:43.051Z,7.03
2018-03-20T13:52:09.751Z,7.83
2018-03-20T13:54:36.516Z,8.20
2018-03-20T13:57:03.200Z,8.23
2018-03-20T13:59:29.849Z,9.70
2018-03-20T14:01:56.573Z,9.10
2018-03-20T14:04:23.233Z,7.60
2018-03-20T14:06:49.876Z,6.80
2018-03-20T14:09:16.538Z,6.67
2018-03-20T14:11:43.285Z,7.57
2018-03-20T14:14:09.966Z,7.00
2018-03-20T14:16:36.614Z,8.82
2018-03-20T14:19:03.377Z,7.90
2018-03-20T14:21:30.181Z,7.73
2018-03-20T14:23:56.827Z,6.93
2018-03-20T14:26:23.624Z,8.57
2018-03-20T14:28:51.801Z,6.90
2018-03-20T14:31:18.705Z,7.80
2018-03-20T14:33:45.355Z,6.93
2018-03-20T14:36:12.008Z,7.77
2018-03-20T14:38:38.812Z,8.60
2018-03-20T14:41:05.487Z,7.07
2018-03-20T14:43:32.151Z,7.63
2018-03-20T14:45:58.954Z,7.33
2018-03-20T14:48:25.628Z,6.87
2018-03-20T14:50:52.329Z,7.85
2018-03-20T14:53:19.046Z,8.07
2018-03-20T14:55:45.696Z,9.37
2018-03-20T14:58:12.364Z,8.20
2018-03-20T15:00:39.115Z,9.43
2018-03-20T15:03:05.806Z,9.27
2018-03-20T15:05:32.453Z,8.33
2018-03-20T15:07:59.102Z,9.33
2018-03-20T15:10:25.764Z,9.77
2018-03-20T15:12:52.423Z,8.80
2018-03-20T15:15:19.272Z,7.77
2018-03-20T15:17:45.943Z,7.30
2018-03-20T15:20:12.669Z,9.20
2018-03-20T15:22:39.330Z,9.10
2018-03-20T15:25:05.973Z,6.97
2018-03-20T15:27:32.767Z,8.77
2018-03-20T15:29:59.428Z,7.77
2018-03-20T15:32:26.196Z,8.50
2018-03-20T15:34:52.857Z,7.72
2018-03-20T15:37:19.493Z,6.97
2018-03-20T15:39:46.319Z,7.00
2018-03-20T15:42:12.991Z,6.33
2018-03-20T15:44:39.698Z,6.60
2018-03-20T15:47:06.539Z,7.87
2018-03-20T15:49:33.204Z,6.17
2018-03-20T15:51:59.871Z,6.53
2018-03-20T15:54:26.534Z,7.00
2018-03-20T15:56:53.419Z,6.23
2018-03-20T15:59:20.122Z,6.23
2018-03-20T16:01:46.783Z,6.27
2018-03-20T16:04:13.556Z,6.10
2018-03-20T16:06:40.291Z,6.20
2018-03-20T16:09:07.047Z,5.47
2018-03-20T16:11:33.732Z,6.27
2018-03-20T16:14:00.385Z,6.93
2018-03-20T16:16:27.169Z,6.73
2018-03-20T16:18:53.846Z,6.73
2018-03-20T16:21:20.487Z,6.13
2018-03-20T16:23:47.269Z,5.93
2018-03-20T16:26:13.936Z,5.80
2018-03-20T16:28:40.598Z,6.30
2018-03-20T16:31:07.256Z,5.80
2018-03-20T16:33:33.910Z,6.17
2018-03-20T16:36:00.580Z,5.67
2018-03-20T16:38:27.306Z,7.53
2018-03-20T16:40:54.176Z,6.10
2018-03-20T16:43:21.025Z,6.00
2018-03-20T16:45:47.706Z,5.00
2018-03-20T16:48:14.404Z,6.20
2018-03-20T16:50:41.146Z,6.80
2018-03-20T16:53:07.934Z,5.30
2018-03-20T16:55:34.594Z,5.30
2018-03-20T16:58:01.237Z,5.30
2018-03-20T17:00:28.003Z,5.80
2018-03-20T17:02:54.700Z,5.43
2018-03-20T17:05:21.424Z,5.30
2018-03-20T17:07:48.068Z,6.07
2018-03-20T17:10:14.810Z,5.60
2018-03-20T17:12:41.496Z,5.97
2018-03-20T17:15:08.320Z,5.20
2018-03-20T17:17:35.053Z,5.17
2018-03-20T17:20:01.663Z,5.63
2018-03-20T17:22:28.425Z,6.03
2018-03-20T17:24:55.125Z,5.37
2018-03-20T17:27:21.767Z,5.70
2018-03-20T17:29:48.559Z,5.67
2018-03-20T17:32:15.219Z,5.10
2018-03-20T17:34:41.870Z,5.03
2018-03-20T17:37:08.539Z,5.00
2018-03-20T17:39:35.197Z,5.10
2018-03-20T17:42:01.866Z,5.10
2018-03-20T17:44:28.528Z,5.10
2018-03-20T17:46:55.439Z,5.57
2018-03-20T17:49:22.143Z,4.60
2018-03-20T17:51:48.881Z,5.83
2018-03-20T17:54:15.681Z,5.77
2018-03-20T17:56:42.337Z,5.37
2018-03-20T17:59:09.023Z,5.03
2018-03-20T18:01:35.680Z,6.00
2018-03-20T18:04:02.531Z,5.30
2018-03-20T18:06:29.243Z,5.03
2018-03-20T18:08:55.966Z,5.00
2018-03-20T18:11:22.722Z,5.50
2018-03-20T18:13:49.407Z,5.50
2018-03-20T18:16:16.225Z,5.03
2018-03-20T18:18:42.970Z,4.73
2018-03-20T18:21:09.613Z,5.07
2018-03-20T18:23:36.255Z,6.17
2018-03-20T18:26:03.190Z,6.13
2018-03-20T18:28:30.013Z,5.40
2018-03-20T18:30:56.704Z,6.47
2018-03-20T18:33:23.370Z,5.27
2018-03-20T18:35:50.032Z,5.60
2018-03-20T18:38:17.560Z,6.43
2018-03-20T18:40:44.204Z,5.20
2018-03-20T18:43:10.895Z,5.20
2018-03-20T18:45:37.596Z,5.60
2018-03-20T18:48:04.248Z,5.20
2018-03-20T18:50:30.912Z,5.53
2018-03-20T18:52:57.566Z,4.93
2018-03-20T18:55:24.236Z,5.23
2018-03-20T18:57:50.884Z,5.13
2018-03-20T19:00:17.612Z,7.30
2018-03-20T19:02:44.261Z,5.00
2018-03-20T19:05:10.900Z,5.67
2018-03-20T19:07:37.593Z,5.07
2018-03-20T19:10:04.242Z,8.17
2018-03-20T19:12:30.912Z,5.37
2018-03-20T19:14:57.580Z,5.00
2018-03-20T19:17:24.248Z,7.80
2018-03-20T19:19:50.925Z,6.80
2018-03-20T19:22:17.581Z,7.33
2018-03-20T19:24:44.248Z,5.07
2018-03-20T19:27:10.947Z,5.00
2018-03-20T19:29:37.613Z,7.10
2018-03-20T19:32:04.327Z,4.40
2018-03-20T19:34:30.999Z,4.87
2018-03-20T19:36:57.707Z,5.17
2018-03-20T19:39:24.411Z,4.93
2018-03-20T19:41:51.079Z,4.50
2018-03-20T19:44:17.775Z,5.87
2018-03-20T19:46:44.439Z,5.60
2018-03-20T19:49:11.103Z,5.10
2018-03-20T19:51:37.764Z,4.70
2018-03-20T19:54:04.409Z,4.70
2018-03-20T19:56:31.071Z,4.67
2018-03-20T19:58:57.722Z,4.83
2018-03-20T20:01:24.388Z,4.67
2018-03-20T20:03:51.050Z,4.70
2018-03-20T20:06:17.713Z,6.33
2018-03-20T20:08:44.384Z,4.40
2018-03-20T20:11:11.039Z,4.53
2018-03-20T20:13:37.703Z,4.80
2018-03-20T20:16:04.390Z,4.93
2018-03-20T20:18:31.035Z,4.63
2018-03-20T20:20:57.710Z,5.17
2018-03-20T20:23:24.371Z,6.20
2018-03-20T20:25:51.024Z,4.90
2018-03-20T20:28:17.694Z,4.40
2018-03-20T20:30:44.343Z,4.73
2018-03-20T20:33:11.000Z,5.13
2018-03-20T20:35:38.435Z,4.27
2018-03-20T20:38:05.076Z,4.93
2018-03-20T20:40:31.741Z,4.33
2018-03-20T20:42:58.378Z,5.20
2018-03-20T20:45:25.060Z,7.23
2018-03-20T20:47:51.701Z,4.20
2018-03-20T20:50:18.371Z,5.20
2018-03-20T20:52:45.035Z,4.40
2018-03-20T20:55:11.683Z,9.43
2018-03-20T20:57:38.371Z,4.50
2018-03-20T21:00:05.024Z,5.40
2018-03-20T21:02:31.671Z,4.20
2018-03-20T21:04:58.351Z,6.70
2018-03-20T21:07:24.988Z,4.77
2018-03-20T21:09:51.651Z,6.47
2018-03-20T21:12:18.300Z,5.27
2018-03-20T21:14:44.964Z,4.00
2018-03-20T21:17:11.640Z,4.37
2018-03-20T21:19:38.291Z,4.53
2018-03-20T21:22:04.975Z,6.43
2018-03-20T21:24:31.623Z,5.27
2018-03-20T21:26:58.275Z,5.47
2018-03-20T21:29:24.952Z,4.30
2018-03-20T21:31:51.603Z,4.20
2018-03-20T21:34:18.289Z,9.13
2018-03-20T21:36:44.936Z,4.40
2018-03-20T21:39:11.588Z,4.30
2018-03-20T21:41:38.247Z,5.33
2018-03-20T21:44:04.940Z,4.67
2018-03-20T21:46:31.604Z,6.70
2018-03-20T21:48:58.265Z,6.87
2018-03-20T21:51:24.919Z,7.57
2018-03-20T21:53:51.599Z,4.93
2018-03-20T21:56:18.256Z,5.68
2018-03-20T21:58:44.915Z,5.23
2018-03-20T22:01:11.584Z,4.43
2018-03-20T22:03:38.380Z,5.27
2018-03-20T22:06:05.051Z,4.17
2018-03-20T22:08:31.752Z,4.67
2018-03-20T22:10:58.487Z,7.13
2018-03-20T22:13:25.137Z,8.10
2018-03-20T22:15:51.785Z,4.63
2018-03-20T22:18:18.444Z,6.03
2018-03-20T22:20:45.129Z,5.50
2018-03-20T22:23:11.783Z,5.30
2018-03-20T22:25:38.429Z,5.10
2018-03-20T22:28:05.107Z,4.37
2018-03-20T22:30:31.759Z,4.67
2018-03-20T22:32:58.401Z,6.43
2018-03-20T22:35:25.124Z,11.30
2018-03-20T22:37:51.768Z,5.80
2018-03-20T22:40:18.415Z,5.50
2018-03-20T22:42:45.074Z,6.70
2018-03-20T22:45:11.712Z,5.57
2018-03-20T22:47:38.379Z,5.10
2018-03-20T22:50:05.028Z,6.80
2018-03-20T22:52:31.675Z,6.43
2018-03-20T22:54:58.350Z,4.93
2018-03-20T22:57:24.992Z,5.87
2018-03-20T22:59:51.660Z,4.67
2018-03-20T23:02:18.311Z,4.77
2018-03-20T23:04:44.964Z,9.77
2018-03-20T23:07:11.634Z,4.90
2018-03-20T23:09:38.281Z,5.03
2018-03-20T23:12:04.954Z,6.13
2018-03-20T23:14:31.606Z,5.20
2018-03-20T23:16:58.248Z,4.70
2018-03-20T23:19:24.908Z,5.47
2018-03-20T23:21:51.548Z,6.37
2018-03-20T23:24:18.211Z,3.90
2018-03-20T23:26:44.852Z,4.87
2018-03-20T23:29:11.497Z,5.67
2018-03-20T23:31:38.168Z,5.43
2018-03-20T23:34:04.815Z,5.57
2018-03-20T23:36:31.485Z,4.33
2018-03-20T23:38:58.124Z,4.60
2018-03-20T23:41:24.764Z,5.53
2018-03-20T23:43:51.441Z,4.33
2018-03-20T23:46:18.080Z,6.00
2018-03-20T23:48:44.737Z,5.07
2018-03-20T23:51:11.394Z,4.03
2018-03-20T23:53:38.045Z,4.83
2018-03-20T23:56:04.727Z,4.57
2018-03-20T23:58:31.366Z,5.57
